Flight Track Log - Related Links

Times and Time Zones

All times are in EDT time to prevent confusion due to time zone crossing. See the OPT332 flight status page for this flight to view local times or setup timezone preferences in your user account.

Time Position Orientation Groundspeed Altitude Reporting Facility
EDT Latitude Longitude Course Direction KTS MPH feet Rate Location/Type
Tue 10:02:54 PM 41.2685 -95.8666 180° South 170 196 4,500  Level FlightAware ADS-B
Tue 10:03:14 PM 41.2584 -95.8493 128° Southeast 184 212 5,300 2,444 Climbing FlightAware ADS-B
Tue 10:03:21 PM 41.2536 -95.8436 138° Southeast 198 228 5,600 2,690 Climbing FlightAware ADS-B
Tue 10:03:43 PM 41.2370 -95.8250 140° Southeast 225 259 6,600 2,640 Climbing FlightAware ADS-B
Tue 10:03:46 PM 41.2345 -95.8221 139° Southeast 228 262 6,700 3,038 Climbing FlightAware ADS-B
Tue 10:05:02 PM 41.1684 -95.7415 137° Southeast 279 321 10,600 3,068 Climbing FlightAware ADS-B
Tue 10:05:14 PM 41.1569 -95.7264 135° Southeast 283 326 11,200 3,176 Climbing FlightAware ADS-B
Tue 10:05:19 PM 41.1518 -95.7211 142° Southeast 283 326 11,500 3,000 Climbing FlightAware ADS-B
Tue 10:05:24 PM 41.1464 -95.7173 152° Southeast 282 325 11,700 2,727 Climbing FlightAware ADS-B
Tue 10:05:30 PM 41.1389 -95.7142 163° South 280 322 12,000 3,273 Climbing FlightAware ADS-B
Tue 10:05:46 PM 41.1183 -95.7141 180° South 263 303 12,900 2,588 Climbing FlightAware ADS-B
Tue 10:07:12 PM 41.0092 -95.6995 174° South 289 333 16,400 1,983 Climbing FlightAware ADS-B
Tue 10:07:47 PM 40.9641 -95.6865 168° South 295 339 16,900 277 Climbing FlightAware ADS-B
Tue 10:09:22 PM 40.8249 -95.6541 170° South 343 395 17,000 47 Climbing FlightAware ADS-B
Tue 10:09:54 PM 40.7740 -95.6418 170° South 349 402 17,000  Level FlightAware ADS-B
Tue 10:10:25 PM 40.7253 -95.6301 170° South 346 398 17,000  Level FlightAware ADS-B
Tue 10:11:34 PM 40.6163 -95.6039 170° South 341 392 17,000  Level FlightAware ADS-B
Tue 10:12:06 PM 40.5668 -95.5921 170° South 336 387 17,000  Level FlightAware ADS-B
Tue 10:13:43 PM 40.4256 -95.5585 170° South 332 382 17,000  Level FlightAware ADS-B
Tue 10:14:13 PM 40.3738 -95.5462 170° South 331 381 17,000  Level FlightAware ADS-B
Tue 10:14:44 PM 40.3276 -95.5353 170° South 330 380 17,000  Level FlightAware ADS-B
Tue 10:15:53 PM 40.2248 -95.5108 170° South 330 380 17,000 -65 Level FlightAware ADS-B
Tue 10:16:17 PM 40.1879 -95.5022 170° South 331 381 16,900 -111 Descending FlightAware ADS-B
Tue 10:16:47 PM 40.1416 -95.4912 170° South 330 380 16,900 -849 Level FlightAware ADS-B
Tue 10:18:03 PM 40.0318 -95.4653 170° South 300 345 15,400 -1,257 Descending FlightAware ADS-B
Tue 10:18:32 PM 39.9931 -95.4563 170° South 288 331 14,700 -1,500 Descending FlightAware ADS-B
Tue 10:19:03 PM 39.9527 -95.4468 170° South 294 338 13,900 -1,558 Descending FlightAware ADS-B
Tue 10:20:16 PM 39.8510 -95.4192 168° South 316 364 12,000 -1,500 Descending FlightAware ADS-B
Tue 10:20:19 PM 39.8470 -95.4164 152° Southeast 316 364 12,000 -545 Level FlightAware ADS-B
Tue 10:20:27 PM 39.8369 -95.4081 148° Southeast 319 367 11,900 -545 Descending FlightAware ADS-B
Tue 10:20:30 PM 39.8331 -95.4044 143° Southeast 320 368 11,900  Level FlightAware ADS-B
Tue 10:21:01 PM 39.7981 -95.3668 140° Southeast 320 368 11,900  Level FlightAware ADS-B
Tue 10:22:24 PM 39.7028 -95.2678 141° Southeast 321 369 11,900  Level FlightAware ADS-B
Tue 10:22:51 PM 39.6696 -95.2347 142° Southeast 320 368 11,900  Level FlightAware ADS-B
Tue 10:22:55 PM 39.6636 -95.2311 155° Southeast 316 364 11,900  Level FlightAware ADS-B
Tue 10:22:59 PM 39.6582 -95.2288 162° South 315 362 11,900 87 Level FlightAware ADS-B
Tue 10:24:04 PM 39.5667 -95.1833 162° South 322 371 12,000 -190 Climbing Kansas City TRACON
Tue 10:25:05 PM 39.4833 -95.1500 163° South 326 375 11,500 -992 Descending Kansas City TRACON
Tue 10:26:11 PM 39.4000 -95.1167 163° South 307 353 9,900 -1,524 Descending Kansas City TRACON
Tue 10:27:11 PM 39.3167 -95.0833 163° South 291 335 8,300 -1,650 Descending Kansas City TRACON
Tue 10:28:11 PM 39.2500 -95.0500 159° South 271 312 6,600 -1,737 Descending Kansas City TRACON
Tue 10:29:05 PM 39.1833 -95.0167 159° South 262 302 5,000 -1,368 Descending Kansas City TRACON
Tue 10:30:05 PM 39.1333 -94.9833 153° Southeast 226 260 4,000 -500 Descending Kansas City TRACON
Tue 10:31:05 PM 39.0833 -94.9667 165° South 177 204 4,000 -50 Level Kansas City TRACON
Tue 10:32:05 PM 39.0333 -94.9500 165° South 167 192 3,900 -500 Descending Kansas City TRACON
Tue 10:33:05 PM 38.9833 -94.9167 153° Southeast 172 198 3,000 -476 Descending Kansas City TRACON
Tue 10:34:11 PM 38.9333 -94.9000 165° South 153 176 2,900 -91 Descending Kansas City TRACON
Tue 10:35:17 PM 38.9000 -94.8833 159° South 99 114 2,800 -429 Descending Kansas City TRACON
Tue 10:36:17 PM 38.8833 -94.8833 180° South 90 104 2,000 -629 Descending Kansas City TRACON
Tue 10:37:21 PM 38.8558 -94.8922 194° South 97 112 1,500 -384 Descending Kansas City Center
Tue 10:38:22 PM 38.8272 -94.8908 178° South 100 115 1,200 -295 Descending Kansas City Center

Login

Don't have an account? Register now (free) for customized features, flight alerts, and more!